sensor_id;sensor_type;location;lat;lon;timestamp;temperature;humidity
78649;DHT22;67962;47.310;9.642;2023-07-22T00:00:44;19.20;73.30
78649;DHT22;67962;47.310;9.642;2023-07-22T00:03:09;19.10;73.30
78649;DHT22;67962;47.310;9.642;2023-07-22T00:05:35;19.10;73.80
78649;DHT22;67962;47.310;9.642;2023-07-22T00:08:01;19.10;73.60
78649;DHT22;67962;47.310;9.642;2023-07-22T00:10:26;19.20;73.70
78649;DHT22;67962;47.310;9.642;2023-07-22T00:12:52;19.00;73.70
78649;DHT22;67962;47.310;9.642;2023-07-22T00:15:18;19.10;73.70
78649;DHT22;67962;47.310;9.642;2023-07-22T00:17:45;19.10;74.00
78649;DHT22;67962;47.310;9.642;2023-07-22T00:20:11;19.00;73.80
78649;DHT22;67962;47.310;9.642;2023-07-22T00:22:40;19.00;73.90
78649;DHT22;67962;47.310;9.642;2023-07-22T00:25:07;18.80;74.40
78649;DHT22;67962;47.310;9.642;2023-07-22T00:27:36;18.70;74.70
78649;DHT22;67962;47.310;9.642;2023-07-22T00:30:03;18.60;74.10
78649;DHT22;67962;47.310;9.642;2023-07-22T00:32:28;18.50;74.40
78649;DHT22;67962;47.310;9.642;2023-07-22T00:34:54;18.50;74.30
78649;DHT22;67962;47.310;9.642;2023-07-22T00:37:20;18.50;74.80
78649;DHT22;67962;47.310;9.642;2023-07-22T00:39:45;18.50;74.60
78649;DHT22;67962;47.310;9.642;2023-07-22T00:42:11;18.40;74.20
78649;DHT22;67962;47.310;9.642;2023-07-22T00:44:37;18.30;75.30
78649;DHT22;67962;47.310;9.642;2023-07-22T00:47:02;18.30;74.30
78649;DHT22;67962;47.310;9.642;2023-07-22T00:49:29;18.30;74.40
78649;DHT22;67962;47.310;9.642;2023-07-22T00:51:59;18.40;74.60
78649;DHT22;67962;47.310;9.642;2023-07-22T00:54:26;18.50;74.10
78649;DHT22;67962;47.310;9.642;2023-07-22T00:56:54;18.60;73.40
78649;DHT22;67962;47.310;9.642;2023-07-22T00:59:20;18.70;72.90
78649;DHT22;67962;47.310;9.642;2023-07-22T01:01:46;18.70;72.50
78649;DHT22;67962;47.310;9.642;2023-07-22T01:04:15;18.70;73.00
78649;DHT22;67962;47.310;9.642;2023-07-22T01:06:43;18.60;73.70
78649;DHT22;67962;47.310;9.642;2023-07-22T01:09:09;18.50;74.30
78649;DHT22;67962;47.310;9.642;2023-07-22T01:11:35;18.50;74.50
78649;DHT22;67962;47.310;9.642;2023-07-22T01:14:01;18.40;74.60
78649;DHT22;67962;47.310;9.642;2023-07-22T01:16:27;18.40;74.80
78649;DHT22;67962;47.310;9.642;2023-07-22T01:18:54;18.50;74.80
78649;DHT22;67962;47.310;9.642;2023-07-22T01:21:23;18.50;74.80
78649;DHT22;67962;47.310;9.642;2023-07-22T01:23:49;18.50;74.80
78649;DHT22;67962;47.310;9.642;2023-07-22T01:26:15;18.60;74.70
78649;DHT22;67962;47.310;9.642;2023-07-22T01:28:41;18.60;74.60
78649;DHT22;67962;47.310;9.642;2023-07-22T01:31:07;18.50;74.80
78649;DHT22;67962;47.310;9.642;2023-07-22T01:33:33;18.50;75.50
78649;DHT22;67962;47.310;9.642;2023-07-22T01:36:00;18.40;75.20
78649;DHT22;67962;47.310;9.642;2023-07-22T01:38:26;18.40;75.20
78649;DHT22;67962;47.310;9.642;2023-07-22T01:40:51;18.50;75.10
78649;DHT22;67962;47.310;9.642;2023-07-22T01:43:17;18.70;74.50
78649;DHT22;67962;47.310;9.642;2023-07-22T01:45:43;18.70;74.00
78649;DHT22;67962;47.310;9.642;2023-07-22T01:48:08;18.70;73.90
78649;DHT22;67962;47.310;9.642;2023-07-22T01:50:34;18.70;73.90
78649;DHT22;67962;47.310;9.642;2023-07-22T01:53:00;18.80;73.80
78649;DHT22;67962;47.310;9.642;2023-07-22T01:55:25;18.80;73.70
78649;DHT22;67962;47.310;9.642;2023-07-22T01:57:51;18.90;73.50
78649;DHT22;67962;47.310;9.642;2023-07-22T02:00:17;18.90;73.50
78649;DHT22;67962;47.310;9.642;2023-07-22T02:02:43;18.90;73.60
78649;DHT22;67962;47.310;9.642;2023-07-22T02:05:09;18.90;73.80
78649;DHT22;67962;47.310;9.642;2023-07-22T02:07:35;18.80;74.20
78649;DHT22;67962;47.310;9.642;2023-07-22T02:10:01;18.70;74.40
78649;DHT22;67962;47.310;9.642;2023-07-22T02:12:27;18.60;75.00
78649;DHT22;67962;47.310;9.642;2023-07-22T02:14:53;18.50;75.10
78649;DHT22;67962;47.310;9.642;2023-07-22T02:17:19;18.50;75.20
78649;DHT22;67962;47.310;9.642;2023-07-22T02:19:45;18.50;75.10
78649;DHT22;67962;47.310;9.642;2023-07-22T02:22:11;18.50;75.10
78649;DHT22;67962;47.310;9.642;2023-07-22T02:24:38;18.40;75.30
78649;DHT22;67962;47.310;9.642;2023-07-22T02:27:04;18.40;75.40
78649;DHT22;67962;47.310;9.642;2023-07-22T02:29:30;18.40;75.60
78649;DHT22;67962;47.310;9.642;2023-07-22T02:31:58;18.50;75.30
78649;DHT22;67962;47.310;9.642;2023-07-22T02:34:24;18.60;75.30
78649;DHT22;67962;47.310;9.642;2023-07-22T02:36:50;18.60;75.10
78649;DHT22;67962;47.310;9.642;2023-07-22T02:39:15;18.70;74.80
78649;DHT22;67962;47.310;9.642;2023-07-22T02:41:41;18.70;74.20
78649;DHT22;67962;47.310;9.642;2023-07-22T02:44:07;18.70;74.20
78649;DHT22;67962;47.310;9.642;2023-07-22T02:46:33;18.60;74.30
78649;DHT22;67962;47.310;9.642;2023-07-22T02:48:59;18.70;74.20
78649;DHT22;67962;47.310;9.642;2023-07-22T02:51:25;18.80;73.80
78649;DHT22;67962;47.310;9.642;2023-07-22T02:53:50;18.80;73.80
78649;DHT22;67962;47.310;9.642;2023-07-22T02:56:16;18.80;73.70
78649;DHT22;67962;47.310;9.642;2023-07-22T02:58:42;18.80;73.70
78649;DHT22;67962;47.310;9.642;2023-07-22T03:01:08;18.80;73.70
78649;DHT22;67962;47.310;9.642;2023-07-22T03:03:35;18.80;74.00
78649;DHT22;67962;47.310;9.642;2023-07-22T03:06:01;18.70;74.20
78649;DHT22;67962;47.310;9.642;2023-07-22T03:08:27;18.60;74.40
78649;DHT22;67962;47.310;9.642;2023-07-22T03:10:53;18.50;74.50
78649;DHT22;67962;47.310;9.642;2023-07-22T03:13:19;18.50;74.90
78649;DHT22;67962;47.310;9.642;2023-07-22T03:15:44;18.50;75.10
78649;DHT22;67962;47.310;9.642;2023-07-22T03:18:11;18.70;74.80
78649;DHT22;67962;47.310;9.642;2023-07-22T03:20:40;18.70;75.20
78649;DHT22;67962;47.310;9.642;2023-07-22T03:23:07;18.80;73.90
78649;DHT22;67962;47.310;9.642;2023-07-22T03:25:34;18.90;73.70
78649;DHT22;67962;47.310;9.642;2023-07-22T03:28:04;18.90;73.40
78649;DHT22;67962;47.310;9.642;2023-07-22T03:30:30;19.00;73.30
78649;DHT22;67962;47.310;9.642;2023-07-22T03:32:56;18.90;73.00
78649;DHT22;67962;47.310;9.642;2023-07-22T03:35:22;18.80;73.20
78649;DHT22;67962;47.310;9.642;2023-07-22T03:37:48;18.60;73.70
78649;DHT22;67962;47.310;9.642;2023-07-22T03:40:13;18.60;74.10
78649;DHT22;67962;47.310;9.642;2023-07-22T03:42:51;18.50;74.30
78649;DHT22;67962;47.310;9.642;2023-07-22T03:45:20;18.40;74.60
78649;DHT22;67962;47.310;9.642;2023-07-22T03:47:47;18.30;74.60
78649;DHT22;67962;47.310;9.642;2023-07-22T03:50:13;18.30;74.70
78649;DHT22;67962;47.310;9.642;2023-07-22T03:52:39;18.20;74.80
78649;DHT22;67962;47.310;9.642;2023-07-22T03:55:05;18.20;74.80
78649;DHT22;67962;47.310;9.642;2023-07-22T03:57:31;18.20;75.10
78649;DHT22;67962;47.310;9.642;2023-07-22T03:59:57;18.30;75.00
78649;DHT22;67962;47.310;9.642;2023-07-22T04:02:24;18.20;74.90
78649;DHT22;67962;47.310;9.642;2023-07-22T04:04:54;18.20;75.00
78649;DHT22;67962;47.310;9.642;2023-07-22T04:07:20;18.30;74.80
78649;DHT22;67962;47.310;9.642;2023-07-22T04:09:47;18.50;74.50
78649;DHT22;67962;47.310;9.642;2023-07-22T04:12:13;18.50;74.40
78649;DHT22;67962;47.310;9.642;2023-07-22T04:14:39;18.50;74.20
78649;DHT22;67962;47.310;9.642;2023-07-22T04:17:05;18.50;74.30
78649;DHT22;67962;47.310;9.642;2023-07-22T04:19:31;18.50;74.10
78649;DHT22;67962;47.310;9.642;2023-07-22T04:21:57;18.60;74.00
78649;DHT22;67962;47.310;9.642;2023-07-22T04:24:23;18.50;73.90
78649;DHT22;67962;47.310;9.642;2023-07-22T04:26:50;18.50;74.20
78649;DHT22;67962;47.310;9.642;2023-07-22T04:29:16;18.40;74.50
78649;DHT22;67962;47.310;9.642;2023-07-22T04:31:42;18.40;74.70
78649;DHT22;67962;47.310;9.642;2023-07-22T04:34:08;18.40;74.60
78649;DHT22;67962;47.310;9.642;2023-07-22T04:36:34;18.40;74.70
78649;DHT22;67962;47.310;9.642;2023-07-22T04:39:02;18.40;74.70
78649;DHT22;67962;47.310;9.642;2023-07-22T04:41:30;18.40;74.50
78649;DHT22;67962;47.310;9.642;2023-07-22T04:43:56;18.60;74.30
78649;DHT22;67962;47.310;9.642;2023-07-22T04:46:23;18.60;74.20
78649;DHT22;67962;47.310;9.642;2023-07-22T04:48:49;18.60;74.20
78649;DHT22;67962;47.310;9.642;2023-07-22T04:51:15;18.70;74.00
78649;DHT22;67962;47.310;9.642;2023-07-22T04:53:41;18.80;73.90
78649;DHT22;67962;47.310;9.642;2023-07-22T04:56:06;18.80;73.60
78649;DHT22;67962;47.310;9.642;2023-07-22T04:58:32;18.90;73.40
78649;DHT22;67962;47.310;9.642;2023-07-22T05:00:58;18.90;73.30
78649;DHT22;67962;47.310;9.642;2023-07-22T05:03:24;18.90;73.30
78649;DHT22;67962;47.310;9.642;2023-07-22T05:05:52;19.00;73.10
78649;DHT22;67962;47.310;9.642;2023-07-22T05:08:18;18.90;73.00
78649;DHT22;67962;47.310;9.642;2023-07-22T05:10:44;18.90;72.90
78649;DHT22;67962;47.310;9.642;2023-07-22T05:13:10;18.90;72.90
78649;DHT22;67962;47.310;9.642;2023-07-22T05:15:36;19.00;72.90
78649;DHT22;67962;47.310;9.642;2023-07-22T05:18:01;19.00;73.00
78649;DHT22;67962;47.310;9.642;2023-07-22T05:20:27;18.90;73.50
78649;DHT22;67962;47.310;9.642;2023-07-22T05:22:53;18.80;74.20
78649;DHT22;67962;47.310;9.642;2023-07-22T05:25:18;18.80;74.30
78649;DHT22;67962;47.310;9.642;2023-07-22T05:27:44;18.70;74.80
78649;DHT22;67962;47.310;9.642;2023-07-22T05:30:10;18.70;74.90
78649;DHT22;67962;47.310;9.642;2023-07-22T05:32:36;18.70;75.30
78649;DHT22;67962;47.310;9.642;2023-07-22T05:35:01;18.60;75.20
78649;DHT22;67962;47.310;9.642;2023-07-22T05:37:30;18.70;75.30
78649;DHT22;67962;47.310;9.642;2023-07-22T05:39:56;18.70;75.30
78649;DHT22;67962;47.310;9.642;2023-07-22T05:42:22;18.70;75.30
78649;DHT22;67962;47.310;9.642;2023-07-22T05:44:48;18.70;75.40
78649;DHT22;67962;47.310;9.642;2023-07-22T05:47:14;18.80;75.50
78649;DHT22;67962;47.310;9.642;2023-07-22T05:49:40;18.80;75.60
78649;DHT22;67962;47.310;9.642;2023-07-22T05:52:05;18.90;75.70
78649;DHT22;67962;47.310;9.642;2023-07-22T05:54:31;19.10;75.30
78649;DHT22;67962;47.310;9.642;2023-07-22T05:56:57;19.20;74.90
78649;DHT22;67962;47.310;9.642;2023-07-22T05:59:23;19.30;74.90
78649;DHT22;67962;47.310;9.642;2023-07-22T06:01:48;19.40;74.30
78649;DHT22;67962;47.310;9.642;2023-07-22T06:04:14;19.50;73.70
78649;DHT22;67962;47.310;9.642;2023-07-22T06:06:40;19.60;73.40
78649;DHT22;67962;47.310;9.642;2023-07-22T06:09:06;19.50;73.50
78649;DHT22;67962;47.310;9.642;2023-07-22T06:11:31;19.40;73.70
78649;DHT22;67962;47.310;9.642;2023-07-22T06:13:57;19.40;74.30
78649;DHT22;67962;47.310;9.642;2023-07-22T06:16:23;19.40;74.10
78649;DHT22;67962;47.310;9.642;2023-07-22T06:18:48;19.50;74.20
78649;DHT22;67962;47.310;9.642;2023-07-22T06:21:14;19.60;73.80
78649;DHT22;67962;47.310;9.642;2023-07-22T06:23:40;19.80;73.00
78649;DHT22;67962;47.310;9.642;2023-07-22T06:26:06;19.90;72.40
78649;DHT22;67962;47.310;9.642;2023-07-22T06:28:32;19.90;72.50
78649;DHT22;67962;47.310;9.642;2023-07-22T06:30:57;19.90;72.60
78649;DHT22;67962;47.310;9.642;2023-07-22T06:33:23;20.00;72.50
78649;DHT22;67962;47.310;9.642;2023-07-22T06:35:49;20.10;72.40
78649;DHT22;67962;47.310;9.642;2023-07-22T06:38:14;20.20;72.20
78649;DHT22;67962;47.310;9.642;2023-07-22T06:40:40;20.20;71.90
78649;DHT22;67962;47.310;9.642;2023-07-22T06:43:06;20.20;71.90
78649;DHT22;67962;47.310;9.642;2023-07-22T06:45:32;20.20;71.10
78649;DHT22;67962;47.310;9.642;2023-07-22T06:47:58;20.20;70.90
78649;DHT22;67962;47.310;9.642;2023-07-22T06:50:24;20.20;71.70
78649;DHT22;67962;47.310;9.642;2023-07-22T06:52:50;20.20;71.70
78649;DHT22;67962;47.310;9.642;2023-07-22T06:55:15;20.30;71.90
78649;DHT22;67962;47.310;9.642;2023-07-22T06:57:41;20.50;71.70
78649;DHT22;67962;47.310;9.642;2023-07-22T07:00:08;20.60;71.60
78649;DHT22;67962;47.310;9.642;2023-07-22T07:02:35;20.90;71.00
78649;DHT22;67962;47.310;9.642;2023-07-22T07:05:01;21.20;69.80
78649;DHT22;67962;47.310;9.642;2023-07-22T07:07:27;21.30;69.80
78649;DHT22;67962;47.310;9.642;2023-07-22T07:09:53;21.50;67.10
78649;DHT22;67962;47.310;9.642;2023-07-22T07:12:18;21.50;68.10
78649;DHT22;67962;47.310;9.642;2023-07-22T07:14:44;21.70;67.00
78649;DHT22;67962;47.310;9.642;2023-07-22T07:17:10;21.80;67.30
78649;DHT22;67962;47.310;9.642;2023-07-22T07:19:35;21.70;67.70
78649;DHT22;67962;47.310;9.642;2023-07-22T07:22:01;21.60;67.60
78649;DHT22;67962;47.310;9.642;2023-07-22T07:24:27;21.60;68.70
78649;DHT22;67962;47.310;9.642;2023-07-22T07:26:53;21.60;68.60
78649;DHT22;67962;47.310;9.642;2023-07-22T07:29:18;21.70;68.70
78649;DHT22;67962;47.310;9.642;2023-07-22T07:31:44;21.80;67.30
78649;DHT22;67962;47.310;9.642;2023-07-22T07:34:10;21.90;67.20
78649;DHT22;67962;47.310;9.642;2023-07-22T07:36:35;22.10;67.20
78649;DHT22;67962;47.310;9.642;2023-07-22T07:39:01;22.20;66.70
78649;DHT22;67962;47.310;9.642;2023-07-22T07:41:28;22.10;66.30
78649;DHT22;67962;47.310;9.642;2023-07-22T07:43:54;22.00;66.80
78649;DHT22;67962;47.310;9.642;2023-07-22T07:46:27;21.70;67.60
78649;DHT22;67962;47.310;9.642;2023-07-22T07:48:56;21.60;68.10
78649;DHT22;67962;47.310;9.642;2023-07-22T07:51:24;21.50;68.40
78649;DHT22;67962;47.310;9.642;2023-07-22T07:53:52;21.60;68.50
78649;DHT22;67962;47.310;9.642;2023-07-22T07:56:18;21.50;67.80
78649;DHT22;67962;47.310;9.642;2023-07-22T07:58:46;21.60;68.50
78649;DHT22;67962;47.310;9.642;2023-07-22T08:01:12;21.80;67.80
78649;DHT22;67962;47.310;9.642;2023-07-22T08:03:39;22.00;66.80
78649;DHT22;67962;47.310;9.642;2023-07-22T08:06:05;21.90;66.20
78649;DHT22;67962;47.310;9.642;2023-07-22T08:08:32;22.00;64.90
78649;DHT22;67962;47.310;9.642;2023-07-22T08:13:28;22.00;65.10
78649;DHT22;67962;47.310;9.642;2023-07-22T08:15:56;22.20;65.10
78649;DHT22;67962;47.310;9.642;2023-07-22T08:18:22;22.50;64.70
78649;DHT22;67962;47.310;9.642;2023-07-22T08:20:50;22.80;63.70
78649;DHT22;67962;47.310;9.642;2023-07-22T08:23:16;23.00;63.30
78649;DHT22;67962;47.310;9.642;2023-07-22T08:25:41;23.30;63.00
78649;DHT22;67962;47.310;9.642;2023-07-22T08:28:07;23.60;61.10
78649;DHT22;67962;47.310;9.642;2023-07-22T08:30:33;23.90;61.00
78649;DHT22;67962;47.310;9.642;2023-07-22T08:32:58;24.40;60.90
78649;DHT22;67962;47.310;9.642;2023-07-22T08:35:24;24.70;59.20
78649;DHT22;67962;47.310;9.642;2023-07-22T08:37:50;24.90;59.10
78649;DHT22;67962;47.310;9.642;2023-07-22T08:40:16;24.90;58.90
78649;DHT22;67962;47.310;9.642;2023-07-22T08:42:41;25.20;57.80
78649;DHT22;67962;47.310;9.642;2023-07-22T08:45:09;25.30;58.10
78649;DHT22;67962;47.310;9.642;2023-07-22T08:47:39;25.20;58.10
78649;DHT22;67962;47.310;9.642;2023-07-22T08:50:08;25.00;59.30
78649;DHT22;67962;47.310;9.642;2023-07-22T08:52:35;25.20;59.50
78649;DHT22;67962;47.310;9.642;2023-07-22T08:55:01;25.20;58.10
78649;DHT22;67962;47.310;9.642;2023-07-22T08:57:29;25.10;58.40
78649;DHT22;67962;47.310;9.642;2023-07-22T08:59:57;25.20;57.20
78649;DHT22;67962;47.310;9.642;2023-07-22T09:02:24;25.10;54.90
78649;DHT22;67962;47.310;9.642;2023-07-22T09:04:50;25.10;53.60
78649;DHT22;67962;47.310;9.642;2023-07-22T09:07:16;25.20;55.80
78649;DHT22;67962;47.310;9.642;2023-07-22T09:09:44;25.60;54.70
78649;DHT22;67962;47.310;9.642;2023-07-22T09:12:12;25.40;54.30
78649;DHT22;67962;47.310;9.642;2023-07-22T09:14:40;25.40;54.90
78649;DHT22;67962;47.310;9.642;2023-07-22T09:17:06;25.30;53.30
78649;DHT22;67962;47.310;9.642;2023-07-22T09:19:32;25.20;53.40
78649;DHT22;67962;47.310;9.642;2023-07-22T09:21:58;25.40;52.40
78649;DHT22;67962;47.310;9.642;2023-07-22T09:24:26;25.80;54.10
78649;DHT22;67962;47.310;9.642;2023-07-22T09:26:53;26.20;52.50
78649;DHT22;67962;47.310;9.642;2023-07-22T09:29:35;26.60;51.50
78649;DHT22;67962;47.310;9.642;2023-07-22T09:32:01;26.80;48.60
78649;DHT22;67962;47.310;9.642;2023-07-22T09:34:28;26.80;47.10
78649;DHT22;67962;47.310;9.642;2023-07-22T09:36:58;27.20;46.70
78649;DHT22;67962;47.310;9.642;2023-07-22T09:39:29;27.40;45.60
78649;DHT22;67962;47.310;9.642;2023-07-22T09:41:55;27.60;44.80
78649;DHT22;67962;47.310;9.642;2023-07-22T09:44:22;27.60;42.80
78649;DHT22;67962;47.310;9.642;2023-07-22T09:46:51;27.40;43.00
78649;DHT22;67962;47.310;9.642;2023-07-22T09:49:17;27.60;45.10
78649;DHT22;67962;47.310;9.642;2023-07-22T09:51:44;27.60;43.50
78649;DHT22;67962;47.310;9.642;2023-07-22T09:54:10;27.70;43.30
78649;DHT22;67962;47.310;9.642;2023-07-22T09:56:47;27.90;41.00
78649;DHT22;67962;47.310;9.642;2023-07-22T09:59:14;27.80;41.40
78649;DHT22;67962;47.310;9.642;2023-07-22T10:01:41;27.90;41.40
78649;DHT22;67962;47.310;9.642;2023-07-22T10:04:08;27.90;40.70
78649;DHT22;67962;47.310;9.642;2023-07-22T10:06:36;28.10;41.00
78649;DHT22;67962;47.310;9.642;2023-07-22T10:09:03;28.30;43.90
78649;DHT22;67962;47.310;9.642;2023-07-22T10:11:33;28.70;41.70
78649;DHT22;67962;47.310;9.642;2023-07-22T10:14:03;28.60;38.40
78649;DHT22;67962;47.310;9.642;2023-07-22T10:16:29;28.60;39.80
78649;DHT22;67962;47.310;9.642;2023-07-22T10:18:57;28.60;40.10
78649;DHT22;67962;47.310;9.642;2023-07-22T10:21:24;28.30;42.10
78649;DHT22;67962;47.310;9.642;2023-07-22T10:23:51;28.30;41.90
78649;DHT22;67962;47.310;9.642;2023-07-22T10:26:20;28.60;41.10
78649;DHT22;67962;47.310;9.642;2023-07-22T10:28:46;28.90;39.60
78649;DHT22;67962;47.310;9.642;2023-07-22T10:31:13;29.10;38.60
78649;DHT22;67962;47.310;9.642;2023-07-22T10:33:39;29.40;39.30
78649;DHT22;67962;47.310;9.642;2023-07-22T10:36:16;29.40;41.20
78649;DHT22;67962;47.310;9.642;2023-07-22T10:38:42;28.90;39.10
78649;DHT22;67962;47.310;9.642;2023-07-22T10:41:15;28.90;39.00
78649;DHT22;67962;47.310;9.642;2023-07-22T10:43:55;28.90;39.30
78649;DHT22;67962;47.310;9.642;2023-07-22T10:46:35;28.90;37.20
78649;DHT22;67962;47.310;9.642;2023-07-22T10:51:37;28.90;40.60
78649;DHT22;67962;47.310;9.642;2023-07-22T10:54:11;28.90;39.60
78649;DHT22;67962;47.310;9.642;2023-07-22T10:56:36;29.10;40.10
78649;DHT22;67962;47.310;9.642;2023-07-22T10:59:02;29.20;41.40
78649;DHT22;67962;47.310;9.642;2023-07-22T11:04:24;29.10;38.70
78649;DHT22;67962;47.310;9.642;2023-07-22T11:12:03;28.90;36.10
78649;DHT22;67962;47.310;9.642;2023-07-22T11:14:40;28.80;36.80
78649;DHT22;67962;47.310;9.642;2023-07-22T11:17:07;28.70;36.10
78649;DHT22;67962;47.310;9.642;2023-07-22T11:19:34;28.60;37.30
78649;DHT22;67962;47.310;9.642;2023-07-22T11:22:00;28.40;36.30
78649;DHT22;67962;47.310;9.642;2023-07-22T11:24:26;28.50;37.10
78649;DHT22;67962;47.310;9.642;2023-07-22T11:26:53;28.40;36.00
78649;DHT22;67962;47.310;9.642;2023-07-22T11:29:20;28.10;37.40
78649;DHT22;67962;47.310;9.642;2023-07-22T11:31:47;28.10;38.50
78649;DHT22;67962;47.310;9.642;2023-07-22T11:34:23;28.10;38.20
78649;DHT22;67962;47.310;9.642;2023-07-22T11:36:50;28.30;37.00
78649;DHT22;67962;47.310;9.642;2023-07-22T11:39:18;28.60;37.50
78649;DHT22;67962;47.310;9.642;2023-07-22T11:41:45;28.80;37.10
78649;DHT22;67962;47.310;9.642;2023-07-22T11:44:16;29.00;38.20
78649;DHT22;67962;47.310;9.642;2023-07-22T11:49:25;28.90;35.90
78649;DHT22;67962;47.310;9.642;2023-07-22T11:51:54;28.80;34.50
78649;DHT22;67962;47.310;9.642;2023-07-22T11:54:21;28.70;35.10
78649;DHT22;67962;47.310;9.642;2023-07-22T11:56:47;28.70;35.10
78649;DHT22;67962;47.310;9.642;2023-07-22T11:59:13;28.80;35.80
78649;DHT22;67962;47.310;9.642;2023-07-22T12:01:38;29.00;36.40
78649;DHT22;67962;47.310;9.642;2023-07-22T12:04:10;29.10;35.60
78649;DHT22;67962;47.310;9.642;2023-07-22T12:06:37;29.30;36.40
78649;DHT22;67962;47.310;9.642;2023-07-22T12:09:03;29.40;35.90
78649;DHT22;67962;47.310;9.642;2023-07-22T12:11:32;29.30;35.10
78649;DHT22;67962;47.310;9.642;2023-07-22T12:16:30;28.70;36.00
78649;DHT22;67962;47.310;9.642;2023-07-22T12:18:56;28.80;36.40
78649;DHT22;67962;47.310;9.642;2023-07-22T12:21:22;28.80;35.90
78649;DHT22;67962;47.310;9.642;2023-07-22T12:23:47;29.00;36.00
78649;DHT22;67962;47.310;9.642;2023-07-22T12:26:13;29.10;36.20
78649;DHT22;67962;47.310;9.642;2023-07-22T12:28:39;28.70;36.20
78649;DHT22;67962;47.310;9.642;2023-07-22T12:31:05;28.70;37.00
78649;DHT22;67962;47.310;9.642;2023-07-22T12:33:30;28.70;36.60
78649;DHT22;67962;47.310;9.642;2023-07-22T12:35:57;28.80;36.80
78649;DHT22;67962;47.310;9.642;2023-07-22T12:38:23;28.80;36.20
78649;DHT22;67962;47.310;9.642;2023-07-22T12:40:49;29.00;37.30
78649;DHT22;67962;47.310;9.642;2023-07-22T12:43:14;29.20;36.20
78649;DHT22;67962;47.310;9.642;2023-07-22T12:45:40;29.20;33.90
78649;DHT22;67962;47.310;9.642;2023-07-22T12:48:06;29.10;34.30
78649;DHT22;67962;47.310;9.642;2023-07-22T12:50:32;29.00;36.30
78649;DHT22;67962;47.310;9.642;2023-07-22T12:53:02;28.90;36.20
78649;DHT22;67962;47.310;9.642;2023-07-22T12:55:28;28.80;36.80
78649;DHT22;67962;47.310;9.642;2023-07-22T12:57:54;28.70;36.80
78649;DHT22;67962;47.310;9.642;2023-07-22T13:00:20;28.60;35.10
78649;DHT22;67962;47.310;9.642;2023-07-22T13:02:47;28.50;34.00
78649;DHT22;67962;47.310;9.642;2023-07-22T13:05:13;28.50;34.80
78649;DHT22;67962;47.310;9.642;2023-07-22T13:07:39;28.70;34.50
78649;DHT22;67962;47.310;9.642;2023-07-22T13:10:08;28.90;34.40
78649;DHT22;67962;47.310;9.642;2023-07-22T13:12:39;28.80;34.60
78649;DHT22;67962;47.310;9.642;2023-07-22T13:15:05;28.70;34.90
78649;DHT22;67962;47.310;9.642;2023-07-22T13:17:31;28.40;33.90
78649;DHT22;67962;47.310;9.642;2023-07-22T13:19:57;28.20;35.90
78649;DHT22;67962;47.310;9.642;2023-07-22T13:22:23;28.00;36.10
78649;DHT22;67962;47.310;9.642;2023-07-22T13:24:49;28.00;34.40
78649;DHT22;67962;47.310;9.642;2023-07-22T13:27:14;28.00;36.20
78649;DHT22;67962;47.310;9.642;2023-07-22T13:29:40;27.90;36.50
78649;DHT22;67962;47.310;9.642;2023-07-22T13:32:06;27.80;37.10
78649;DHT22;67962;47.310;9.642;2023-07-22T13:34:32;28.00;35.90
78649;DHT22;67962;47.310;9.642;2023-07-22T13:36:58;28.10;37.90
78649;DHT22;67962;47.310;9.642;2023-07-22T13:39:23;28.30;36.80
78649;DHT22;67962;47.310;9.642;2023-07-22T13:41:49;28.40;35.50
78649;DHT22;67962;47.310;9.642;2023-07-22T13:44:16;28.40;36.50
78649;DHT22;67962;47.310;9.642;2023-07-22T13:46:42;28.30;38.60
78649;DHT22;67962;47.310;9.642;2023-07-22T13:49:07;28.20;37.60
78649;DHT22;67962;47.310;9.642;2023-07-22T13:51:34;28.10;36.60
78649;DHT22;67962;47.310;9.642;2023-07-22T13:53:59;27.90;36.10
78649;DHT22;67962;47.310;9.642;2023-07-22T13:56:25;27.80;37.50
78649;DHT22;67962;47.310;9.642;2023-07-22T13:58:51;28.00;37.80
78649;DHT22;67962;47.310;9.642;2023-07-22T14:01:17;28.20;39.00
78649;DHT22;67962;47.310;9.642;2023-07-22T14:03:43;28.20;38.20
78649;DHT22;67962;47.310;9.642;2023-07-22T14:06:09;28.10;37.30
78649;DHT22;67962;47.310;9.642;2023-07-22T14:08:34;28.00;37.10
78649;DHT22;67962;47.310;9.642;2023-07-22T14:11:00;28.00;37.00
78649;DHT22;67962;47.310;9.642;2023-07-22T14:13:26;28.00;38.10
78649;DHT22;67962;47.310;9.642;2023-07-22T14:15:52;28.00;37.90
78649;DHT22;67962;47.310;9.642;2023-07-22T14:18:18;27.80;36.00
78649;DHT22;67962;47.310;9.642;2023-07-22T14:20:44;27.70;37.80
78649;DHT22;67962;47.310;9.642;2023-07-22T14:23:11;27.70;37.50
78649;DHT22;67962;47.310;9.642;2023-07-22T14:25:37;27.70;38.20
78649;DHT22;67962;47.310;9.642;2023-07-22T14:28:03;27.60;37.90
78649;DHT22;67962;47.310;9.642;2023-07-22T14:30:29;27.70;38.80
78649;DHT22;67962;47.310;9.642;2023-07-22T14:32:55;27.80;39.40
78649;DHT22;67962;47.310;9.642;2023-07-22T14:35:21;27.80;39.40
78649;DHT22;67962;47.310;9.642;2023-07-22T14:37:48;27.80;39.10
78649;DHT22;67962;47.310;9.642;2023-07-22T14:40:14;27.80;39.20
78649;DHT22;67962;47.310;9.642;2023-07-22T14:42:40;27.80;39.40
78649;DHT22;67962;47.310;9.642;2023-07-22T14:45:06;27.80;38.20
78649;DHT22;67962;47.310;9.642;2023-07-22T14:47:32;28.00;36.20
78649;DHT22;67962;47.310;9.642;2023-07-22T14:49:58;27.80;36.00
78649;DHT22;67962;47.310;9.642;2023-07-22T14:52:24;27.80;35.60
78649;DHT22;67962;47.310;9.642;2023-07-22T14:54:50;27.70;35.40
78649;DHT22;67962;47.310;9.642;2023-07-22T14:57:19;27.60;36.20
78649;DHT22;67962;47.310;9.642;2023-07-22T14:59:45;27.60;36.80
78649;DHT22;67962;47.310;9.642;2023-07-22T15:02:12;27.60;35.90
78649;DHT22;67962;47.310;9.642;2023-07-22T15:04:38;27.60;35.90
78649;DHT22;67962;47.310;9.642;2023-07-22T15:07:04;27.60;36.70
78649;DHT22;67962;47.310;9.642;2023-07-22T15:09:29;27.60;37.60
78649;DHT22;67962;47.310;9.642;2023-07-22T15:11:56;27.50;36.30
78649;DHT22;67962;47.310;9.642;2023-07-22T15:14:21;27.40;36.70
78649;DHT22;67962;47.310;9.642;2023-07-22T15:16:47;27.40;37.30
78649;DHT22;67962;47.310;9.642;2023-07-22T15:19:13;27.40;38.90
78649;DHT22;67962;47.310;9.642;2023-07-22T15:21:38;27.50;37.80
78649;DHT22;67962;47.310;9.642;2023-07-22T15:24:04;27.50;37.80
78649;DHT22;67962;47.310;9.642;2023-07-22T15:26:30;27.40;36.70
78649;DHT22;67962;47.310;9.642;2023-07-22T15:28:56;27.40;37.00
78649;DHT22;67962;47.310;9.642;2023-07-22T15:31:22;27.40;36.10
78649;DHT22;67962;47.310;9.642;2023-07-22T15:33:48;27.40;38.20
78649;DHT22;67962;47.310;9.642;2023-07-22T15:36:14;27.30;38.30
78649;DHT22;67962;47.310;9.642;2023-07-22T15:38:40;27.20;36.70
78649;DHT22;67962;47.310;9.642;2023-07-22T15:41:06;27.00;37.30
78649;DHT22;67962;47.310;9.642;2023-07-22T15:43:32;27.00;37.60